Flight Number: EUR2439 Duration: 6:00
Departure: Dubai Int'l (OMDB) at 08:00 Distance: 2463 Nm
Arrival: Munich Int'l (EDDM) at 14:00 Equipment: B777

Weather Information
Dubai International Airport, United Arab Emirates (OMDB) 25-15N 055-20E 5M Nov 18, 2017 - 06:00 AM EST / 2017.11.18 1100 UTC
Wind: from the SSE (150 degrees) at 3 MPH (3 KT) (direction variable):0
Visibility: greater than 7 mile(s):0
Sky conditions: mostly clear Temperature: 87 F (31 C) Dew Point: 48 F (9 C) Relative Humidity: 25% Pressure (altimeter): 30.00 in. Hg (1016 hPa)
ob: OMDB 181100Z 15003KT 070V240 9999 FEW040 31/09 Q1016 BECMG 34012KT cycle: 11
Sunrise: 02:40 Sunset: 13:26 (UTC)

Munchen, Germany (EDDM) 48-21N 011-47E Nov 18, 2017 - 06:20 AM EST / 2017.11.18 1120 UTC
Wind: from the W (260 degrees) at 9 MPH (8 KT):0
Visibility: 3 mile(s):0
Sky conditions: overcast Temperature: 39 F (4 C) Dew Point: 37 F (3 C) Relative Humidity: 93% Pressure (altimeter): 30.15 in. Hg (1021 hPa)
ob: EDDM 181120Z 26008KT 6000 OVC004 04/03 Q1021 BECMG BKN010 cycle: 11
Sunrise: 06:29 Sunset: 15:26 (UTC)

TAF:2017/11/18 12:27 TAF EDDM 181100Z 1812/1918 24010KT 8000 SCT006 BKN010 PROB30 TEMPO 1812/1813 BKN006 BECMG 1813/1814 BKN015 TEMPO 1902/1908 4000 RASN BKN010 BECMG 1906/1908 26015G25KT TEMPO 1908/1912 2500 SHSN BKN012TCU BECMG 1916/1918 26012KT

Previous Pireps for this route
Date Aircraft Flight time Fuel used Landing rate On time
2012-08-14A3405.35703870Yes
2012-11-02A34006.44112308-462No
2013-01-23A3405.3067954.70Yes
2013-01-29A3405.3063527.80Yes
2015-07-02B7776.231057580Charter
2016-02-29B77706.261211060Yes
2016-03-13B7776,30111918-312No
2016-10-07B77706.08100062-207Yes
2016-10-16B77706.07120485-347No
2016-11-01B77706.09130278-469Yes
(pireps marked green are flown by you)

Route map